^^
Station Historical Data
Daily Summary for November 27, 2017 Units:  Metric    English   Both
« Previous Day
Next Day »
Daily Weekly Monthly Yearly Custom
  High: Low: Average:
Temperature: 36.4 °C 17 °C 24.4 °C
Dew Point: 7.5 °C -6.9 °C 3.7 °C
Humidity: 47% 6% 31%
Wind Speed: 19.5km/h 0km/h 6.1km/h
Wind Gust: 20.9km/h - -
Wind- - SSW
Pressure: 1010 hPa 1005.6 hPa -
Precipitation: 0 mm    
Historical Graphs
 
 
Tabular Data for November 27, 2017
Time Temperature Dew Point Pressure Wind Wind Speed Wind Gust Humidity Rainfall Rate (Hourly) solar Conditions
00:08 23.7 °C 7.3 °C 1010 hPa SSW 17.7 km/h 19.3 km/h 35% 0 mm 0.0 W/m2
00:13 23.7 °C 7.3 °C 1010 hPa SSW 16.3 km/h 19.3 km/h 35% 0 mm 0.0 W/m2
00:18 23.6 °C 7.2 °C 1009.7 hPa SSW 17.7 km/h 20.9 km/h 35% 0 mm 0.0 W/m2
00:24 23.5 °C 7.2 °C 1009.7 hPa SSW 17.7 km/h 19.3 km/h 35% 0 mm 0.0 W/m2
00:35 23.4 °C 7.5 °C 1009.7 hPa SSW 14.3 km/h 17.7 km/h 36% 0 mm 0.0 W/m2
00:49 23.3 °C 7.4 °C 1009.4 hPa SSW 19.5 km/h 20.9 km/h 36% 0 mm 0.0 W/m2
00:54 23.2 °C 7.3 °C 1009.4 hPa SSW 14.3 km/h 20.9 km/h 36% 0 mm 0.0 W/m2
01:04 23 °C 7.1 °C 1009.4 hPa SSW 14.3 km/h 17.7 km/h 36% 0 mm 0.0 W/m2
01:09 22.9 °C 7 °C 1009.4 hPa SSW 13 km/h 17.7 km/h 36% 0 mm 0.0 W/m2
01:20 22.7 °C 6.9 °C 1009.4 hPa SSW 13 km/h 17.7 km/h 36% 0 mm 0.0 W/m2
01:25 22.6 °C 6.8 °C 1009.4 hPa SSW 16.3 km/h 16.3 km/h 36% 0 mm 0.0 W/m2
01:35 22.4 °C 6.6 °C 1009 hPa SSW 11.1 km/h 12.9 km/h 36% 0 mm 0.0 W/m2
01:44 21.9 °C 6.5 °C 1009 hPa SSW 11.1 km/h 11.3 km/h 37% 0 mm 0.0 W/m2
01:49 21.6 °C 6.3 °C 1009 hPa SSW 9.7 km/h 12.9 km/h 37% 0 mm 0.0 W/m2
01:55 21.5 °C 6.6 °C 1009 hPa SSW 9.7 km/h 12.9 km/h 38% 0 mm 0.0 W/m2
02:05 21.4 °C 6.5 °C 1009 hPa SSW 11.1 km/h 14.5 km/h 38% 0 mm 0.0 W/m2
02:10 21.4 °C 6.5 °C 1008.7 hPa SSW 9.7 km/h 12.9 km/h 38% 0 mm 0.0 W/m2
02:20 21.1 °C 6.6 °C 1009 hPa SSW 9.7 km/h 11.3 km/h 39% 0 mm 0.0 W/m2
02:30 20.9 °C 6.4 °C 1009 hPa SSW 11.1 km/h 12.9 km/h 39% 0 mm 0.0 W/m2
02:35 20.9 °C 6.4 °C 1008.7 hPa SSW 11.1 km/h 12.9 km/h 39% 0 mm 0.0 W/m2
02:40 20.9 °C 6.4 °C 1008.7 hPa SSW 9.7 km/h 14.5 km/h 39% 0 mm 0.0 W/m2
02:45 20.8 °C 6.7 °C 1009 hPa SSW 7.9 km/h 11.3 km/h 40% 0 mm 0.0 W/m2
02:50 20.8 °C 6.7 °C 1009 hPa SSW 3.2 km/h 8 km/h 40% 0 mm 0.0 W/m2
02:55 20.7 °C 6.6 °C 1009 hPa SSW 6.4 km/h 6.4 km/h 40% 0 mm 0.0 W/m2
03:00 20.6 °C 6.5 °C 1009 hPa SSW 4.7 km/h 6.4 km/h 40% 0 mm 0.0 W/m2
03:05 20.4 °C 6.3 °C 1009 hPa Calm     40% 0 mm 0.0 W/m2
03:10 20.2 °C 6.2 °C 1009 hPa Calm     40% 0 mm 0.0 W/m2
03:15 20 °C 6.3 °C 1009 hPa Calm     41% 0 mm 0.0 W/m2
03:20 19.9 °C 6.3 °C 1009 hPa Calm     41% 0 mm 0.0 W/m2
03:25 19.7 °C 6.4 °C 1009 hPa Calm     42% 0 mm 0.0 W/m2
03:31 19.6 °C 6.3 °C 1009 hPa Calm     42% 0 mm 0.0 W/m2
03:36 19.6 °C 6.3 °C 1009 hPa Calm     42% 0 mm 0.0 W/m2
03:41 19.6 °C 6.3 °C 1009 hPa Calm     42% 0 mm 0.0 W/m2
03:46 19.5 °C 6.2 °C 1009 hPa Calm     42% 0 mm 0.0 W/m2
03:51 19.3 °C 6.1 °C 1009 hPa Calm     42% 0 mm 0.0 W/m2
03:57 19 °C 5.8 °C 1009 hPa Calm     42% 0 mm 0.0 W/m2
04:02 18.7 °C 5.9 °C 1009 hPa Calm     43% 0 mm 0.0 W/m2
04:07 18.5 °C 5.7 °C 1009 hPa Calm     43% 0 mm 0.0 W/m2
04:13 18.4 °C 5.9 °C 1009 hPa Calm     44% 0 mm 0.0 W/m2
04:18 18.3 °C 5.8 °C 1009 hPa Calm     44% 0 mm 0.0 W/m2
04:23 18.2 °C 5.7 °C 1009 hPa Calm     44% 0 mm 0.0 W/m2
04:28 18.1 °C 6 °C 1009 hPa Calm     45% 0 mm 0.0 W/m2
04:39 17.9 °C 5.8 °C 1009 hPa Calm     45% 0 mm 0.0 W/m2
04:50 17.8 °C 5.7 °C 1009 hPa Calm     45% 0 mm 0.0 W/m2
04:55 17.6 °C 5.8 °C 1009 hPa Calm     46% 0 mm 0.0 W/m2
05:04 17.5 °C 5.7 °C 1009 hPa Calm     46% 0 mm 0.0 W/m2
05:09 17.5 °C 5.7 °C 1009 hPa Calm     46% 0 mm 0.0 W/m2
05:10 17.5 °C 5.7 °C 1009 hPa Calm     46% 0 mm 0.0 W/m2
05:16 17.4 °C 6 °C 1009 hPa Calm     47% 0 mm 0.0 W/m2
05:21 17.4 °C 5.3 °C 1009 hPa Calm     45% 0 mm 0.0 W/m2
05:31 17 °C 5.6 °C 1009 hPa Calm     47% 0 mm 0.0 W/m2
06:21 18.8 °C 6.6 °C 1009.4 hPa Calm     45% 0 mm 49.0 W/m2
06:31 19.4 °C 6.5 °C 1009.4 hPa Calm     43% 0 mm 77.0 W/m2
06:52 20.1 °C 6.8 °C 1009.4 hPa Calm     42% 0 mm 137.0 W/m2
07:02 20.8 °C 6.3 °C 1009.4 hPa Calm     39% 0 mm 204.0 W/m2
07:22 21.7 °C 6 °C 1009.4 hPa SSW 7.9 km/h 9.7 km/h 36% 0 mm 258.0 W/m2
07:38 22.6 °C 5.5 °C 1009.7 hPa SSW 13 km/h 13 km/h 33% 0 mm 311.0 W/m2
07:52 23 °C 5 °C 1009.7 hPa SSW 11.1 km/h 17.7 km/h 31% 0 mm 359.0 W/m2
08:07 23.5 °C 4.9 °C 1009.7 hPa SSW 14.3 km/h 19.3 km/h 30% 0 mm 413.0 W/m2
08:23 24 °C 4.4 °C 1009.7 hPa SSW 13 km/h 16.1 km/h 28% 0 mm 464.0 W/m2
08:32 24.5 °C 4.3 °C 1009.4 hPa SSW 13 km/h 14.5 km/h 27% 0 mm 512.0 W/m2
08:54 25.1 °C 3.7 °C 1009.7 hPa SSW 9.7 km/h 16.1 km/h 25% 0 mm 563.0 W/m2
09:09 25.7 °C 3.6 °C 1009.7 hPa SSW 13 km/h 13 km/h 24% 0 mm 612.0 W/m2
09:24 26.4 °C 3.6 °C 1009.7 hPa SSW 9.7 km/h 14.5 km/h 23% 0 mm 659.0 W/m2
09:36 27.1 °C 2.9 °C 1009.7 hPa SSW 11.1 km/h 16.1 km/h 21% 0 mm 701.0 W/m2
09:46 27.4 °C 3.1 °C 1009.7 hPa SSW 7.9 km/h 14.5 km/h 21% 0 mm 729.0 W/m2
09:57 27.8 °C 2.8 °C 1009.7 hPa SSW 11.1 km/h 12.9 km/h 20% 0 mm 758.0 W/m2
10:13 28.7 °C 2.8 °C 1009.4 hPa SSW 7.9 km/h 9.7 km/h 19% 0 mm 810.0 W/m2
10:21 28.7 °C 2.8 °C 1009.4 hPa SSW 7.9 km/h 9.7 km/h 19% 0 mm 810.0 W/m2
10:33 29.6 °C 2 °C 1009.4 hPa SSW 13 km/h 13 km/h 17% 0 mm 854.0 W/m2
10:53 30.3 °C 0.8 °C 1009 hPa SSW 6.4 km/h 9.7 km/h 15% 0 mm 893.0 W/m2
11:19 31.4 °C 0.7 °C 1009 hPa SSW 7.9 km/h 11.3 km/h 14% 0 mm 925.0 W/m2
11:34 31.8 °C 0 °C 1009 hPa SSW 6.4 km/h 8 km/h 13% 0 mm 942.0 W/m2
11:49 32.1 °C -0.9 °C 1009 hPa Calm   9.7 km/h 12% 0 mm 960.0 W/m2
12:04 32.7 °C -0.4 °C 1008.7 hPa SW 11.1 km/h 19.3 km/h 12% 0 mm 969.0 W/m2
12:09 32.8 °C -1.5 °C 1008.7 hPa SW 1.4 km/h 12.9 km/h 11% 0 mm 972.0 W/m2
12:25 33 °C -1.4 °C 1008.4 hPa Calm     11% 0 mm 977.0 W/m2
12:33 33 °C -1.4 °C 1008.4 hPa Calm     11% 0 mm 977.0 W/m2
12:54 34.1 °C -1.8 °C 1008.4 hPa West 6.4 km/h 14.5 km/h 10% 0 mm 983.0 W/m2
13:05 34 °C -3.3 °C 1008 hPa West 7.9 km/h 8 km/h 9% 0 mm 972.0 W/m2
13:11 34 °C -3.3 °C 1008 hPa West 7.9 km/h 8 km/h 9% 0 mm 972.0 W/m2
13:20 34.6 °C -2.9 °C 1007.7 hPa Calm   6.4 km/h 9% 0 mm 969.0 W/m2
13:35 34.8 °C -6.1 °C 1007.3 hPa NNE 7.9 km/h 14.5 km/h 7% 0 mm 954.0 W/m2
13:50 34.8 °C -6.1 °C 1007.3 hPa NNE 1.4 km/h 3.2 km/h 7% 0 mm 939.0 W/m2
14:12 35 °C -5.9 °C 1007 hPa Calm   9.7 km/h 7% 0 mm 916.0 W/m2
14:27 34.9 °C -6 °C 1006.7 hPa NNE 1.4 km/h 1.6 km/h 7% 0 mm 891.0 W/m2
14:43 35.6 °C -5.5 °C 1006.3 hPa North 11.1 km/h 17.7 km/h 7% 0 mm 863.0 W/m2
15:14 35.4 °C -5.6 °C 1006 hPa Calm     7% 0 mm 793.0 W/m2
15:28 36.4 °C -4.9 °C 1006 hPa NNW 1.4 km/h 1.6 km/h 7% 0 mm 756.0 W/m2
15:43 36.4 °C -6.9 °C 1005.6 hPa NW 9.7 km/h 20.9 km/h 6% 0 mm 714.0 W/m2
15:54 35.7 °C -5.4 °C 1005.6 hPa WSW 9.7 km/h 14.5 km/h 7% 0 mm 668.0 W/m2
16:03 35.5 °C -5.6 °C 1005.6 hPa WSW 6.4 km/h 19.3 km/h 7% 0 mm 638.0 W/m2
Canyon Roadhouse, Fishriver Canyon, Namibia
Compliments of Weather Underground - 2 mb